Time;durP1;ratioP1;P1;durP2;ratioP2;P2;SDS_P1;SDS_P2;PMS_P1;PMS_P2;Temp;Humidity;BMP_temperature;BMP_pressure;BME280_temperature;BME280_humidity;BME280_pressure;Samples;Min_cycle;Max_cycle;Signal;HPM_P1;HPM_P2
2021/11/13 00:02:25;;;;;;;22.38;12.10;;;;;;;14.88;68.70;100930.53;5064693;28;20068;-61
2021/11/13 00:04:52;;;;;;;22.23;11.60;;;;;;;14.92;68.82;100937.03;5073919;28;20045;-61
2021/11/13 00:07:19;;;;;;;22.95;11.50;;;;;;;14.96;68.58;100931.63;5055155;28;20060;-63
2021/11/13 00:09:47;;;;;;;23.60;11.90;;;;;;;14.84;68.64;100932.34;5060715;28;20053;-63
2021/11/13 00:12:14;;;;;;;22.65;11.88;;;;;;;14.88;68.78;100926.94;5074054;28;20052;-63
2021/11/13 00:14:44;;;;;;;21.40;11.68;;;;;;;14.81;69.06;100924.72;5073826;28;20143;-63
2021/11/13 00:17:13;;;;;;;27.15;13.73;;;;;;;14.75;69.33;100919.69;5069982;28;20053;-63
2021/11/13 00:19:40;;;;;;;28.58;12.35;;;;;;;14.68;69.61;100914.66;5048286;28;20052;-63
2021/11/13 00:22:08;;;;;;;19.40;10.93;;;;;;;14.85;69.26;100927.63;5054040;28;20048;-63
2021/11/13 00:24:36;;;;;;;23.35;11.27;;;;;;;14.95;68.78;100927.22;5055678;28;20052;-64
2021/11/13 00:27:05;;;;;;;25.55;12.20;;;;;;;14.87;69.24;100926.13;5057822;28;20053;-63
2021/11/13 00:29:32;;;;;;;22.05;11.35;;;;;;;14.87;69.07;100919.78;5057974;28;20059;-64
2021/11/13 00:32:00;;;;;;;23.58;11.73;;;;;;;14.89;68.92;100920.25;5057715;28;20048;-63
2021/11/13 00:34:28;;;;;;;20.75;10.70;;;;;;;14.81;68.99;100913.63;5057529;28;20052;-64
2021/11/13 00:36:55;;;;;;;23.77;11.45;;;;;;;14.94;68.97;100912.53;5058024;28;20072;-63
2021/11/13 00:39:23;;;;;;;25.27;12.10;;;;;;;14.92;68.71;100914.03;5065498;28;20083;-62
2021/11/13 00:41:50;;;;;;;23.83;10.63;;;;;;;14.91;68.75;100915.16;5069178;28;20053;-64
2021/11/13 00:44:18;;;;;;;21.92;10.70;;;;;;;15.20;67.72;100915.13;5040039;28;20045;-63
2021/11/13 00:46:45;;;;;;;24.25;11.30;;;;;;;15.09;67.98;100914.72;5057593;28;20140;-63
2021/11/13 00:49:13;;;;;;;21.25;9.88;;;;;;;15.08;67.84;100915.84;5057629;28;20053;-63
2021/11/13 00:51:40;;;;;;;25.50;11.15;;;;;;;14.99;68.13;100917.91;5056077;28;20057;-64
2021/11/13 00:54:08;;;;;;;22.98;10.18;;;;;;;14.88;68.71;100919.44;5088531;28;20100;-63
2021/11/13 00:56:35;;;;;;;22.70;10.45;;;;;;;15.10;67.80;100913.53;5057387;28;20075;-63
2021/11/13 00:59:02;;;;;;;22.52;11.25;;;;;;;15.28;67.11;100914.22;5057302;28;20052;-63
2021/11/13 01:01:30;;;;;;;26.65;11.55;;;;;;;15.17;67.34;100913.81;5055838;28;20052;-62
2021/11/13 01:03:57;;;;;;;17.83;9.88;;;;;;;15.19;67.12;100919.03;5057163;28;20116;-64
2021/11/13 01:06:25;;;;;;;20.42;10.70;;;;;;;15.23;67.02;100925.53;5071870;28;20053;-64
2021/11/13 01:08:52;;;;;;;22.90;11.10;;;;;;;15.06;67.57;100926.50;5048604;28;20420;-63
2021/11/13 01:11:20;;;;;;;25.05;10.50;;;;;;;15.10;67.64;100913.53;5038352;28;20050;-63
2021/11/13 01:13:47;;;;;;;21.67;10.55;;;;;;;15.21;66.98;100914.78;5068908;28;20054;-62
2021/11/13 01:16:15;;;;;;;22.95;11.15;;;;;;;15.07;67.91;100913.41;5068356;28;20045;-63
2021/11/13 01:18:44;;;;;;;26.17;11.45;;;;;;;15.09;67.62;100911.94;5037209;28;20061;-63
2021/11/13 01:21:11;;;;;;;20.75;11.07;;;;;;;15.00;68.02;100911.19;5037036;28;20060;-64
2021/11/13 01:23:39;;;;;;;21.73;11.07;;;;;;;14.95;68.20;100910.56;5036836;28;20057;-64
2021/11/13 01:26:07;;;;;;;27.10;11.27;;;;;;;15.06;67.85;100915.41;5036888;28;20049;-64
2021/11/13 01:28:34;;;;;;;22.70;10.95;;;;;;;15.07;68.06;100921.72;5036824;28;20068;-63
2021/11/13 01:31:06;;;;;;;21.63;11.15;;;;;;;15.05;68.04;100915.72;5036591;28;20057;-64
2021/11/13 01:33:37;;;;;;;23.50;10.10;;;;;;;15.01;68.15;100915.56;5036585;28;20080;-64
2021/11/13 01:36:04;;;;;;;27.88;10.52;;;;;;;15.41;67.27;100922.28;5036016;28;20060;-64
2021/11/13 01:38:34;;;;;;;22.95;10.27;;;;;;;14.94;68.71;100926.41;5037707;28;20053;-63
2021/11/13 01:41:03;;;;;;;26.05;10.75;;;;;;;14.63;70.11;100928.72;5074365;28;20063;-63
2021/11/13 01:43:37;;;;;;;21.02;9.90;;;;;;;14.58;70.81;100921.44;5072160;28;20100;-63
2021/11/13 01:46:05;;;;;;;25.40;10.85;;;;;;;14.74;70.43;100918.88;5055993;28;20052;-63
2021/11/13 01:48:33;;;;;;;24.45;10.65;;;;;;;14.72;70.45;100925.91;5053831;28;20067;-61
2021/11/13 01:51:00;;;;;;;26.67;10.60;;;;;;;14.88;70.20;100922.22;5035531;28;20053;-61
2021/11/13 01:53:28;;;;;;;20.98;10.02;;;;;;;14.77;70.73;100914.63;5035957;28;20045;-61
2021/11/13 01:55:56;;;;;;;26.90;10.60;;;;;;;14.72;70.71;100912.84;5036001;28;20049;-62
2021/11/13 01:58:24;;;;;;;26.05;10.00;;;;;;;14.87;70.25;100911.47;5036136;28;20045;-61
2021/11/13 02:00:53;;;;;;;22.75;10.02;;;;;;;14.85;70.31;100911.81;5051032;28;20053;-60
2021/11/13 02:03:22;;;;;;;20.38;9.60;;;;;;;14.94;69.79;100904.19;5068265;28;20060;-61
2021/11/13 02:05:51;;;;;;;22.35;9.90;;;;;;;14.66;70.88;100905.91;5035713;28;20054;-60
2021/11/13 02:08:19;;;;;;;21.23;9.57;;;;;;;14.90;70.19;100906.06;5035797;28;20053;-60
2021/11/13 02:10:47;;;;;;;22.15;9.00;;;;;;;14.86;70.24;100899.53;5036064;28;20049;-60
2021/11/13 02:13:15;;;;;;;24.90;10.43;;;;;;;14.91;70.01;100904.06;5036069;28;20056;-61
2021/11/13 02:15:42;;;;;;;22.42;9.82;;;;;;;14.68;70.89;100905.56;5034067;28;20041;-61
2021/11/13 02:18:10;;;;;;;25.42;9.50;;;;;;;14.68;70.96;100895.25;5034689;28;20057;-61
2021/11/13 02:20:42;;;;;;;23.60;9.48;;;;;;;14.74;70.79;100884.78;5034393;28;20616;-60
2021/11/13 02:23:13;;;;;;;18.80;10.18;;;;;;;14.84;70.46;100892.69;5067333;28;20504;-61
2021/11/13 02:25:41;;;;;;;23.90;10.10;;;;;;;14.95;70.25;100891.97;5035399;28;20068;-61
2021/11/13 02:28:10;;;;;;;20.35;8.57;;;;;;;14.98;70.01;100885.75;5035676;28;20064;-62
2021/11/13 02:30:38;;;;;;;22.08;8.93;;;;;;;15.20;68.78;100885.38;5050784;28;20053;-60
2021/11/13 02:33:06;;;;;;;21.35;8.57;;;;;;;14.85;70.26;100886.03;5034422;28;20527;-62
2021/11/13 02:35:34;;;;;;;23.90;8.82;;;;;;;15.11;69.11;100895.75;5035405;28;20056;-61
2021/11/13 02:38:10;;;;;;;23.35;10.20;;;;;;;15.19;68.82;100896.81;5034003;28;20460;-61
2021/11/13 02:40:41;;;;;;;22.85;9.52;;;;;;;15.14;69.02;100889.53;5071890;28;20057;-61
2021/11/13 02:43:09;;;;;;;20.98;8.73;;;;;;;15.10;68.93;100885.00;5055831;28;20045;-61
2021/11/13 02:45:37;;;;;;;26.88;8.52;;;;;;;14.83;70.02;100880.00;5055524;28;20045;-61
2021/11/13 02:48:05;;;;;;;17.00;8.50;;;;;;;15.07;69.13;100883.72;5054424;28;20052;-61
2021/11/13 02:50:34;;;;;;;19.40;9.45;;;;;;;15.08;68.88;100887.31;5055171;28;20056;-61
2021/11/13 02:53:03;;;;;;;20.08;8.25;;;;;;;14.86;69.67;100888.44;5055120;28;20053;-61
2021/11/13 02:55:30;;;;;;;19.80;7.80;;;;;;;14.86;69.75;100885.69;5037140;28;20053;-62
2021/11/13 02:57:58;;;;;;;16.60;7.78;;;;;;;14.99;69.33;100881.84;5055006;28;20060;-60
2021/11/13 03:00:27;;;;;;;24.20;8.15;;;;;;;14.83;70.06;100888.31;5053882;28;20052;-61
2021/11/13 03:02:55;;;;;;;19.55;7.75;;;;;;;14.83;69.85;100871.69;5055078;28;20041;-60
2021/11/13 03:05:24;;;;;;;21.33;8.32;;;;;;;15.00;69.49;100880.66;5053178;28;20076;-60
2021/11/13 03:07:56;;;;;;;23.65;8.38;;;;;;;14.89;69.86;100875.88;5054316;28;20053;-61
2021/11/13 03:10:26;;;;;;;23.83;8.82;;;;;;;15.14;69.06;100885.94;5052806;28;20057;-61
2021/11/13 03:12:53;;;;;;;22.65;9.45;;;;;;;15.15;68.83;100887.56;5054778;28;20056;-61
2021/11/13 03:15:21;;;;;;;20.77;8.15;;;;;;;14.93;70.06;100885.13;5069238;28;20053;-61
2021/11/13 03:17:50;;;;;;;22.65;9.18;;;;;;;15.33;68.36;100875.97;5053541;28;20045;-61
2021/11/13 03:20:20;;;;;;;26.13;8.35;;;;;;;15.20;68.35;100876.25;5086256;28;20057;-61
2021/11/13 03:22:47;;;;;;;27.52;8.38;;;;;;;15.15;69.01;100877.25;5053154;28;20055;-65
2021/11/13 03:25:18;;;;;;;21.83;7.75;;;;;;;15.34;68.32;100871.25;5053444;28;20057;-61
2021/11/13 03:27:53;;;;;;;21.65;7.63;;;;;;;15.33;68.02;100878.75;5054652;28;20135;-63
2021/11/13 03:30:21;;;;;;;18.15;7.53;;;;;;;15.06;69.17;100884.06;5051294;28;20430;-62
2021/11/13 03:32:50;;;;;;;22.35;8.07;;;;;;;15.23;68.95;100881.94;5034749;28;20042;-64
2021/11/13 03:35:27;;;;;;;23.45;7.63;;;;;;;14.92;70.25;100876.03;5034997;28;20076;-63
2021/11/13 03:37:57;;;;;;;20.70;6.88;;;;;;;14.87;70.67;100880.94;5033891;28;20053;-64
2021/11/13 03:40:24;;;;;;;15.85;6.45;;;;;;;14.69;71.67;100880.25;5067838;28;20059;-64
2021/11/13 03:42:51;;;;;;;22.30;6.88;;;;;;;14.74;71.71;100882.00;5054050;28;20045;-63
2021/11/13 03:45:19;;;;;;;18.95;6.25;;;;;;;15.09;70.69;100881.41;5054388;28;20045;-63
2021/11/13 03:47:46;;;;;;;15.57;6.10;;;;;;;15.01;70.70;100876.72;5053205;28;20428;-62
2021/11/13 03:50:14;;;;;;;16.70;5.88;;;;;;;14.78;71.66;100877.41;5054673;28;20057;-63
2021/11/13 03:52:41;;;;;;;20.35;5.97;;;;;;;14.86;71.30;100882.91;5054133;28;20049;-63
2021/11/13 03:55:09;;;;;;;16.45;5.78;;;;;;;14.88;71.26;100880.59;5053138;28;20057;-63
2021/11/13 03:57:36;;;;;;;18.35;6.18;;;;;;;14.86;71.50;100873.75;5052717;28;20037;-65
2021/11/13 04:00:06;;;;;;;16.98;5.63;;;;;;;14.89;71.49;100875.88;5057371;28;20056;-63
2021/11/13 04:02:40;;;;;;;17.48;5.80;;;;;;;14.76;71.80;100874.19;5059114;28;20072;-63
2021/11/13 04:05:08;;;;;;;18.60;5.57;;;;;;;14.81;71.57;100869.25;5058370;28;20049;-63
2021/11/13 04:07:35;;;;;;;18.92;5.97;;;;;;;14.88;71.71;100880.59;5057762;28;20053;-63
2021/11/13 04:10:06;;;;;;;22.60;5.53;;;;;;;14.76;72.14;100880.53;5054621;28;20050;-62
2021/11/13 04:12:35;;;;;;;14.57;5.70;;;;;;;14.81;71.66;100879.50;5047109;28;20048;-64
2021/11/13 04:15:03;;;;;;;15.15;5.38;;;;;;;14.96;71.06;100879.72;5058597;28;20072;-63
2021/11/13 04:17:31;;;;;;;12.38;5.03;;;;;;;14.83;71.73;100877.22;5058036;28;20040;-64
2021/11/13 04:19:59;;;;;;;13.45;4.70;;;;;;;14.83;71.77;100883.59;5056857;28;20493;-65
2021/11/13 04:22:26;;;;;;;13.48;4.47;;;;;;;14.79;71.38;100885.41;5057934;28;20056;-63
2021/11/13 04:24:54;;;;;;;15.50;5.25;;;;;;;14.82;71.60;100884.72;5057919;28;20060;-64
2021/11/13 04:27:21;;;;;;;13.35;4.30;;;;;;;14.95;71.38;100891.16;5058254;28;20053;-62
2021/11/13 04:29:49;;;;;;;15.80;5.40;;;;;;;14.90;70.99;100883.03;5057898;28;20049;-62
2021/11/13 04:32:16;;;;;;;13.80;4.60;;;;;;;14.99;70.75;100876.28;5057887;28;20049;-61
2021/11/13 04:34:51;;;;;;;14.07;4.70;;;;;;;15.06;70.53;100881.28;5057644;28;20249;-61
2021/11/13 04:37:19;;;;;;;16.67;5.10;;;;;;;15.00;70.26;100879.84;5057477;28;20400;-61
2021/11/13 04:39:46;;;;;;;14.35;5.05;;;;;;;14.95;70.90;100877.28;5067472;28;20063;-61
2021/11/13 04:42:15;;;;;;;15.50;5.13;;;;;;;14.97;71.18;100884.13;5067051;28;20097;-61
2021/11/13 04:44:44;;;;;;;16.08;4.30;;;;;;;15.01;70.72;100884.28;5057565;28;20406;-61
2021/11/13 04:47:12;;;;;;;16.43;4.73;;;;;;;14.82;71.50;100892.25;5057194;28;20045;-62
2021/11/13 04:49:39;;;;;;;16.42;4.70;;;;;;;14.65;72.88;100891.22;5057457;28;20051;-61
2021/11/13 04:52:07;;;;;;;14.73;4.63;;;;;;;14.79;72.38;100893.72;5057352;28;20056;-65
2021/11/13 04:54:35;;;;;;;14.65;4.80;;;;;;;14.75;73.00;100886.44;5057119;28;20048;-62
2021/11/13 04:57:04;;;;;;;16.55;5.10;;;;;;;14.80;72.78;100887.03;5039020;28;20057;-61
2021/11/13 04:59:32;;;;;;;18.70;4.97;;;;;;;14.80;72.89;100877.91;5056089;28;20060;-62
2021/11/13 05:01:59;;;;;;;21.77;6.22;;;;;;;14.68;73.73;100880.59;5055611;28;20064;-64
2021/11/13 05:04:29;;;;;;;15.77;4.30;;;;;;;14.52;74.54;100883.16;5057316;28;20492;-64
2021/11/13 05:06:59;;;;;;;17.25;4.75;;;;;;;14.83;73.70;100893.84;5055021;28;20053;-64
2021/11/13 05:09:27;;;;;;;15.48;4.78;;;;;;;14.75;73.35;100884.44;5055427;28;20060;-63
2021/11/13 05:11:54;;;;;;;15.55;4.50;;;;;;;14.72;73.22;100882.34;5056191;28;20420;-64
2021/11/13 05:14:21;;;;;;;16.42;4.50;;;;;;;14.63;73.67;100892.69;5057229;28;20350;-63
2021/11/13 05:16:48;;;;;;;12.30;4.13;;;;;;;14.44;74.42;100890.38;5055436;28;20056;-66
2021/11/13 05:19:16;;;;;;;12.13;4.00;;;;;;;14.49;74.24;100889.34;5056646;28;20044;-63
2021/11/13 05:21:43;;;;;;;13.82;4.05;;;;;;;14.65;73.48;100884.84;5056708;28;20048;-63
2021/11/13 05:24:11;;;;;;;18.40;4.90;;;;;;;14.96;72.34;100884.47;5056852;28;20053;-63
2021/11/13 05:26:38;;;;;;;12.73;3.78;;;;;;;14.87;72.22;100884.50;5056793;28;20051;-63
2021/11/13 05:29:05;;;;;;;14.85;3.63;;;;;;;14.79;72.69;100890.94;5056777;28;20049;-63
2021/11/13 05:31:33;;;;;;;12.32;4.00;;;;;;;14.86;72.49;100891.22;5056800;28;20057;-61
2021/11/13 05:34:00;;;;;;;15.77;3.75;;;;;;;14.79;72.42;100899.25;5056884;28;20049;-61
2021/11/13 05:36:27;;;;;;;14.15;3.33;;;;;;;14.70;72.86;100894.94;5055345;28;20048;-61
2021/11/13 05:38:54;;;;;;;18.45;3.75;;;;;;;14.78;72.86;100903.22;5060204;28;20048;-61
2021/11/13 05:41:22;;;;;;;12.30;3.22;;;;;;;14.83;72.08;100910.50;5075876;28;20057;-60
2021/11/13 05:43:58;;;;;;;10.32;3.40;;;;;;;15.16;71.28;100900.28;5076500;28;20048;-62
2021/11/13 05:46:31;;;;;;;12.40;3.33;;;;;;;15.03;71.53;100901.38;5076044;28;20048;-61
2021/11/13 05:48:59;;;;;;;11.50;3.50;;;;;;;14.97;71.65;100906.31;5076500;28;20040;-61
2021/11/13 05:51:26;;;;;;;11.18;3.10;;;;;;;14.99;71.55;100909.56;5076635;28;20045;-62
2021/11/13 05:53:55;;;;;;;10.88;3.00;;;;;;;15.18;70.52;100900.75;5076326;28;20060;-61
2021/11/13 05:56:25;;;;;;;12.10;3.08;;;;;;;15.13;70.76;100895.44;5075489;28;20048;-62
2021/11/13 05:59:00;;;;;;;12.05;3.15;;;;;;;14.92;71.56;100883.53;5076290;28;20048;-62
2021/11/13 06:01:30;;;;;;;;;;;;;;;15.07;71.10;100896.75;5076729;28;20079;-61
2021/11/13 06:03:57;;;;;;;12.93;3.10;;;;;;;15.20;70.88;100898.47;5074216;28;20375;-61
2021/11/13 06:06:26;;;;;;;11.60;3.63;;;;;;;15.10;70.88;100899.66;5058059;28;20067;-60
2021/11/13 06:08:53;;;;;;;11.02;2.85;;;;;;;15.18;70.22;100893.25;5073888;28;20064;-61
2021/11/13 06:11:22;;;;;;;9.82;2.58;;;;;;;15.26;70.15;100903.47;5063494;28;20412;-61
2021/11/13 06:13:49;;;;;;;9.82;2.60;;;;;;;15.08;70.47;100904.75;5054065;28;20049;-65
2021/11/13 06:16:17;;;;;;;10.65;3.15;;;;;;;15.08;70.92;100892.84;5035626;28;20057;-64
2021/11/13 06:18:44;;;;;;;10.45;2.80;;;;;;;15.27;70.26;100905.06;5035443;28;20048;-64
2021/11/13 06:21:11;;;;;;;11.18;2.70;;;;;;;15.20;70.00;100899.25;5036102;28;20477;-63
2021/11/13 06:23:39;;;;;;;10.30;2.28;;;;;;;15.09;70.53;100895.28;5036197;28;20072;-64
2021/11/13 06:26:07;;;;;;;12.52;3.05;;;;;;;15.21;70.21;100905.63;5051407;28;20053;-64
2021/11/13 06:28:34;;;;;;;9.40;2.33;;;;;;;15.01;70.15;100912.78;5035862;28;20052;-63
2021/11/13 06:31:01;;;;;;;8.38;2.17;;;;;;;14.99;70.76;100909.56;5035363;28;20056;-65
2021/11/13 06:33:32;;;;;;;8.90;1.92;;;;;;;15.18;70.50;100914.63;5035885;28;20057;-64
2021/11/13 06:35:59;;;;;;;7.47;2.00;;;;;;;15.16;69.85;100917.75;5035856;28;20057;-64
2021/11/13 06:38:27;;;;;;;9.98;2.05;;;;;;;14.98;70.65;100909.88;5035959;28;20041;-63
2021/11/13 06:40:54;;;;;;;7.85;2.13;;;;;;;14.98;70.87;100921.81;5075413;28;20044;-65
2021/11/13 06:43:21;;;;;;;9.00;2.10;;;;;;;15.17;70.23;100919.38;5075268;28;20048;-64
2021/11/13 06:45:49;;;;;;;8.38;2.35;;;;;;;14.90;71.53;100928.25;5075381;28;20044;-63
2021/11/13 06:48:17;;;;;;;8.48;2.30;;;;;;;14.87;71.68;100928.88;5074890;28;20052;-63
2021/11/13 06:50:46;;;;;;;8.60;2.45;;;;;;;14.85;71.92;100924.84;5075115;28;20052;-64
2021/11/13 06:53:14;;;;;;;6.65;2.58;;;;;;;15.30;70.45;100928.56;5075268;28;20052;-64
2021/11/13 06:55:41;;;;;;;7.50;2.10;;;;;;;15.14;70.82;100927.56;5075201;28;20060;-62
2021/11/13 06:58:09;;;;;;;11.05;2.40;;;;;;;15.13;70.43;100928.72;5073584;28;20040;-61
2021/11/13 07:00:36;;;;;;;9.30;2.05;;;;;;;14.98;71.78;100937.63;5066054;28;20053;-61
2021/11/13 07:03:04;;;;;;;8.55;1.90;;;;;;;14.94;72.32;100942.25;5046506;28;20061;-61
2021/11/13 07:05:31;;;;;;;7.90;2.00;;;;;;;14.89;72.43;100940.47;5035027;28;20516;-61
2021/11/13 07:07:58;;;;;;;8.75;1.95;;;;;;;14.95;72.30;100944.69;5049350;28;20057;-60
2021/11/13 07:10:27;;;;;;;12.55;2.35;;;;;;;14.76;73.39;100952.63;5082258;28;20064;-64
2021/11/13 07:12:56;;;;;;;8.85;1.85;;;;;;;14.79;73.21;100945.59;5036633;28;20080;-64
2021/11/13 07:15:26;;;;;;;7.35;1.77;;;;;;;14.87;73.03;100945.53;5066717;28;20054;-63
2021/11/13 07:17:53;;;;;;;9.88;2.05;;;;;;;14.73;73.70;100958.03;5034750;28;20057;-65
2021/11/13 07:20:20;;;;;;;11.02;2.33;;;;;;;14.96;72.85;100956.59;5066253;28;20060;-64
2021/11/13 07:22:47;;;;;;;8.02;1.98;;;;;;;14.91;72.66;100965.91;5053358;28;20057;-65
2021/11/13 07:25:16;;;;;;;9.38;1.92;;;;;;;15.09;72.08;100970.19;5054874;28;20064;-69
2021/11/13 07:27:46;;;;;;;12.65;1.90;;;;;;;15.05;72.40;100974.78;5055020;28;20322;-61
2021/11/13 07:30:16;;;;;;;7.65;1.77;;;;;;;14.91;73.01;100981.72;5036859;28;20057;-61
2021/11/13 07:32:44;;;;;;;8.25;1.73;;;;;;;14.87;73.26;100987.13;5053359;28;20053;-61
2021/11/13 07:35:11;;;;;;;7.80;1.60;;;;;;;14.83;73.74;100990.94;5036499;28;20053;-63
2021/11/13 07:37:39;;;;;;;6.10;1.63;;;;;;;15.05;72.97;101001.72;5020591;28;20056;-65
2021/11/13 07:40:07;;;;;;;6.47;1.92;;;;;;;15.26;72.37;100997.00;5067702;28;20123;-63
2021/11/13 07:42:35;;;;;;;8.65;1.90;;;;;;;14.99;73.48;100990.03;5075102;28;20157;-62
2021/11/13 07:45:06;;;;;;;9.80;2.35;;;;;;;14.88;73.93;100990.72;5073695;28;20455;-62
2021/11/13 07:47:36;;;;;;;6.25;1.50;;;;;;;14.90;74.50;100992.03;5074672;28;20487;-65
2021/11/13 07:50:04;;;;;;;4.97;1.38;;;;;;;15.15;73.41;100999.34;5073692;28;20060;-62
2021/11/13 07:52:31;;;;;;;6.68;1.80;;;;;;;14.89;74.48;100997.91;5074686;28;20400;-63
2021/11/13 07:54:58;;;;;;;6.40;2.10;;;;;;;14.86;74.78;101002.16;5072639;28;20049;-65
2021/11/13 07:57:26;;;;;;;5.88;1.60;;;;;;;14.64;75.35;100992.16;5054656;28;20052;-64
2021/11/13 07:59:53;;;;;;;9.77;1.90;;;;;;;14.89;75.41;101001.47;5054561;28;20052;-64
2021/11/13 08:02:20;;;;;;;6.53;1.60;;;;;;;14.74;75.50;101009.56;5054465;28;20048;-65
2021/11/13 08:04:47;;;;;;;7.57;2.08;;;;;;;14.84;75.88;101004.44;5054853;28;20350;-65
2021/11/13 08:07:15;;;;;;;5.25;1.60;;;;;;;14.95;75.08;101010.44;5052328;28;20064;-64
2021/11/13 08:09:42;;;;;;;7.40;2.13;;;;;;;15.03;74.94;101015.13;5053095;28;20050;-65
2021/11/13 08:12:09;;;;;;;6.15;1.88;;;;;;;15.01;74.86;101015.44;5054657;28;20496;-64
2021/11/13 08:14:37;;;;;;;6.20;1.70;;;;;;;14.83;75.25;101022.25;5075674;28;20413;-65
2021/11/13 08:17:04;;;;;;;8.40;2.15;;;;;;;14.90;75.13;101017.00;5052458;28;20503;-65
2021/11/13 08:19:31;;;;;;;6.35;1.40;;;;;;;15.12;74.17;101013.09;5053599;28;20564;-63
2021/11/13 08:21:59;;;;;;;5.57;1.40;;;;;;;15.42;72.79;101017.47;5049357;28;20056;-64
2021/11/13 08:24:26;;;;;;;7.28;1.30;;;;;;;15.58;71.99;101012.94;5035328;28;20052;-64
2021/11/13 08:26:53;;;;;;;5.30;1.38;;;;;;;15.41;72.64;101013.88;5051857;28;20052;-63
2021/11/13 08:29:21;;;;;;;4.70;1.77;;;;;;;15.63;72.07;101015.50;5050624;28;20045;-62
2021/11/13 08:31:48;;;;;;;5.78;1.80;;;;;;;15.48;72.16;101016.16;5052898;28;20700;-60
2021/11/13 08:34:16;;;;;;;7.68;1.52;;;;;;;15.43;72.88;101013.56;5065395;28;20044;-62
2021/11/13 08:36:43;;;;;;;6.07;1.67;;;;;;;15.46;72.43;101016.44;5055814;28;20071;-63
2021/11/13 08:39:11;;;;;;;5.63;1.48;;;;;;;15.39;72.53;101009.81;5070128;28;20040;-62
2021/11/13 08:41:39;;;;;;;7.20;1.70;;;;;;;15.35;72.74;101020.78;5058049;28;20498;-63
2021/11/13 08:44:06;;;;;;;5.53;1.45;;;;;;;15.45;72.25;101025.94;5056971;28;20049;-63
2021/11/13 08:46:35;;;;;;;4.95;1.45;;;;;;;15.42;72.12;101020.25;5061323;28;20381;-62
2021/11/13 08:49:04;;;;;;;7.93;1.70;;;;;;;15.58;71.80;101021.28;5073712;28;20519;-63
2021/11/13 08:51:32;;;;;;;3.60;1.17;;;;;;;15.45;71.81;101028.72;5056618;28;20052;-62
2021/11/13 08:54:00;;;;;;;4.53;1.30;;;;;;;15.77;70.76;101025.19;5062289;28;20045;-63
2021/11/13 08:56:29;;;;;;;4.40;1.00;;;;;;;15.39;71.55;101018.13;5051518;28;20057;-65
2021/11/13 08:58:57;;;;;;;3.80;1.23;;;;;;;15.36;72.09;101036.25;5050001;28;20041;-63
2021/11/13 09:01:29;;;;;;;6.95;1.10;;;;;;;15.28;72.88;101028.81;5051791;28;20052;-63
2021/11/13 09:03:57;;;;;;;4.25;1.08;;;;;;;15.54;72.09;101032.25;5053142;28;20048;-65
2021/11/13 09:06:30;;;;;;;3.40;1.08;;;;;;;14.95;72.71;101038.16;5053798;28;20057;-64
2021/11/13 09:09:00;;;;;;;4.45;1.23;;;;;;;14.73;75.24;101044.00;5054188;28;20511;-63
2021/11/13 09:11:34;;;;;;;4.05;1.00;;;;;;;15.92;73.87;101034.06;5049769;28;20061;-65
2021/11/13 09:14:02;;;;;;;11.27;1.17;;;;;;;17.45;64.20;101026.53;5053859;28;20049;-60
2021/11/13 09:16:30;;;;;;;6.43;1.83;;;;;;;16.01;68.13;101031.97;5064611;28;20152;-60
2021/11/13 09:18:58;;;;;;;6.07;1.55;;;;;;;15.44;69.74;101031.84;5047390;28;20052;-61
2021/11/13 09:21:27;;;;;;;4.15;1.30;;;;;;;14.97;72.38;101033.94;5053594;28;20060;-59
2021/11/13 09:23:54;;;;;;;3.63;1.30;;;;;;;14.45;75.24;101035.31;5054649;28;20045;-61
2021/11/13 09:26:22;;;;;;;7.53;1.42;;;;;;;14.41;76.13;101037.09;5045288;28;20049;-61
2021/11/13 09:28:50;;;;;;;5.63;1.38;;;;;;;14.30;77.07;101030.28;5034793;28;20042;-60
2021/11/13 09:31:19;;;;;;;6.35;1.50;;;;;;;14.22;77.31;101031.09;5046094;28;20053;-61
2021/11/13 09:33:46;;;;;;;7.60;1.60;;;;;;;14.13;77.83;101027.53;5056663;28;20045;-61
2021/11/13 09:36:14;;;;;;;7.82;1.75;;;;;;;13.97;78.81;101026.41;5055190;28;20060;-59
2021/11/13 09:38:45;;;;;;;6.28;1.85;;;;;;;14.05;78.94;101034.72;5058804;28;20045;-60
2021/11/13 09:41:15;;;;;;;5.43;1.60;;;;;;;14.03;79.11;101037.03;5068140;28;20049;-60
2021/11/13 09:43:43;;;;;;;5.28;1.88;;;;;;;14.23;78.95;101043.81;5041625;28;20061;-61
2021/11/13 09:46:11;;;;;;;7.10;1.90;;;;;;;13.89;79.82;101044.69;5050206;28;20053;-62
2021/11/13 09:48:40;;;;;;;6.78;2.05;;;;;;;13.78;80.71;101046.16;5051265;28;20061;-60
2021/11/13 09:51:10;;;;;;;6.60;2.00;;;;;;;13.94;80.27;101046.47;5044597;28;20056;-61
2021/11/13 09:53:40;;;;;;;6.65;1.92;;;;;;;13.96;80.32;101052.50;5064181;28;20060;-58
2021/11/13 09:56:10;;;;;;;10.90;1.98;;;;;;;14.07;79.95;101048.25;5045996;28;20088;-58
2021/11/13 09:58:38;;;;;;;6.55;1.98;;;;;;;14.11;79.82;101049.22;5041236;28;20060;-59
2021/11/13 10:01:06;;;;;;;5.85;1.73;;;;;;;13.68;80.94;101051.22;5037319;28;20057;-60
2021/11/13 10:03:34;;;;;;;8.57;2.70;;;;;;;13.69;81.68;101055.59;5035144;28;20057;-59
2021/11/13 10:06:04;;;;;;;11.75;2.90;;;;;;;13.94;80.86;101057.53;5037147;28;20046;-61
2021/11/13 10:08:33;;;;;;;10.60;2.83;;;;;;;13.92;80.51;101062.59;5078046;28;20065;-61
2021/11/13 10:11:06;;;;;;;6.90;2.05;;;;;;;13.84;80.69;101063.44;5045785;28;20500;-59
2021/11/13 10:13:37;;;;;;;7.88;2.40;;;;;;;14.12;80.07;101071.03;5050061;28;20046;-64
2021/11/13 10:16:16;;;;;;;8.73;2.47;;;;;;;14.13;79.20;101064.38;5023013;28;20050;-59
2021/11/13 10:18:50;;;;;;;9.50;2.85;;;;;;;14.29;79.04;101061.91;5049902;28;20064;-60
2021/11/13 10:21:23;;;;;;;8.60;3.30;;;;;;;14.34;78.42;101064.50;5068705;28;20053;-61
2021/11/13 10:23:58;;;;;;;7.50;2.72;;;;;;;14.15;79.21;101056.53;5035924;28;20052;-61
2021/11/13 10:26:38;;;;;;;10.02;2.80;;;;;;;14.22;79.13;101058.81;5035292;28;20045;-65
2021/11/13 10:29:18;;;;;;;10.13;3.33;;;;;;;14.31;78.35;101067.94;5037694;28;20053;-61
2021/11/13 10:31:49;;;;;;;8.88;3.28;;;;;;;14.29;78.99;101054.44;5045115;28;20334;-62
2021/11/13 10:34:32;;;;;;;8.20;3.55;;;;;;;14.20;79.13;101055.53;5061783;28;20045;-61
2021/11/13 10:37:08;;;;;;;13.25;3.97;;;;;;;14.08;79.61;101059.00;5079592;28;20076;-62
2021/11/13 10:39:39;;;;;;;11.77;3.92;;;;;;;13.99;80.21;101057.38;5065402;28;20045;-62
2021/11/13 10:42:11;;;;;;;13.60;4.28;;;;;;;13.82;81.09;101052.69;5040662;28;20504;-62
2021/11/13 10:45:00;;;;;;;12.75;4.45;;;;;;;14.01;80.94;101052.31;5040629;28;20060;-64
2021/11/13 10:47:34;;;;;;;11.25;5.13;;;;;;;13.94;81.22;101050.06;5048718;28;20056;-64
2021/11/13 10:50:19;;;;;;;16.08;4.90;;;;;;;14.01;81.00;101046.78;5042017;28;20382;-62
2021/11/13 10:53:08;;;;;;;11.93;4.47;;;;;;;14.06;80.56;101058.50;5037835;28;20400;-62
2021/11/13 10:56:01;;;;;;;10.90;4.30;;;;;;;14.04;80.17;101066.34;5060933;28;20056;-63
2021/11/13 10:58:30;;;;;;;13.93;5.28;;;;;;;13.89;80.67;101055.78;5047483;28;20057;-62
2021/11/13 11:00:58;;;;;;;13.63;5.88;;;;;;;13.92;80.71;101057.88;5047155;28;20053;-63
2021/11/13 11:03:30;;;;;;;10.35;4.97;;;;;;;13.64;81.59;101058.53;5055271;28;20053;-62
2021/11/13 11:05:57;;;;;;;10.13;5.00;;;;;;;13.97;81.38;101049.41;5039198;28;20057;-61
2021/11/13 11:08:27;;;;;;;13.38;5.88;;;;;;;13.82;80.70;101052.69;5045573;28;20056;-62
2021/11/13 11:10:55;;;;;;;11.88;5.32;;;;;;;13.73;81.44;101053.81;5051122;28;20072;-61
2021/11/13 11:13:47;;;;;;;14.63;5.53;;;;;;;13.55;82.39;101056.59;5054837;28;20048;-63
2021/11/13 11:16:34;;;;;;;14.63;4.72;;;;;;;13.63;82.42;101045.84;5044828;28;20523;-62
2021/11/13 11:19:05;;;;;;;13.35;5.13;;;;;;;13.59;82.47;101048.44;5040889;28;20045;-62
2021/11/13 11:21:59;;;;;;;14.77;5.03;;;;;;;13.74;82.23;101039.63;5050937;28;20049;-62
2021/11/13 11:24:48;;;;;;;13.55;5.10;;;;;;;13.85;81.60;101029.03;5047451;28;20056;-62
2021/11/13 11:27:28;;;;;;;12.70;4.60;;;;;;;13.91;81.41;101039.66;5044510;28;20523;-61
2021/11/13 11:30:00;;;;;;;9.98;4.15;;;;;;;13.84;81.12;101033.78;5069797;28;20052;-62